Time;durP1;ratioP1;P1;durP2;ratioP2;P2;SDS_P1;SDS_P2;PMS_P1;PMS_P2;Temp;Humidity;BMP_temperature;BMP_pressure;BME280_temperature;BME280_humidity;BME280_pressure;Samples;Min_cycle;Max_cycle;Signal;HPM_P1;HPM_P2
2021/01/31 00:00:36;;;;;;;39.40;23.27;;;;;;;-0.21;75.41;98364.72;1761480;80;21158;-45
2021/01/31 00:03:13;;;;;;;34.67;22.73;;;;;;;-0.28;77.65;98372.48;1754764;80;21589;-37
2021/01/31 00:05:40;;;;;;;35.33;23.20;;;;;;;-0.43;78.29;98370.13;1762983;79;21126;-36
2021/01/31 00:08:09;;;;;;;34.77;23.37;;;;;;;-0.47;78.09;98350.26;1717846;80;21146;-35
2021/01/31 00:10:37;;;;;;;40.77;26.70;;;;;;;-0.45;78.21;98332.23;1760774;80;21146;-35
2021/01/31 00:13:05;;;;;;;44.03;28.40;;;;;;;-0.46;77.90;98321.36;1757305;80;21648;-38
2021/01/31 00:15:37;;;;;;;36.33;25.23;;;;;;;-0.53;77.99;98319.98;1760677;80;21573;-35
2021/01/31 00:18:05;;;;;;;37.70;26.23;;;;;;;-0.63;78.00;98309.55;1759983;79;21138;-36
2021/01/31 00:20:33;;;;;;;43.73;28.00;;;;;;;-0.75;78.02;98333.22;1765163;79;21604;-37
2021/01/31 00:23:02;;;;;;;45.87;28.70;;;;;;;-0.81;78.37;98355.73;1763647;79;21153;-38
2021/01/31 00:25:30;;;;;;;41.17;26.00;;;;;;;-0.94;79.78;98375.53;1760698;79;21162;-38
2021/01/31 00:27:57;;;;;;;41.33;26.00;;;;;;;-1.12;82.17;98393.75;1722421;81;21150;-38
2021/01/31 00:30:34;;;;;;;39.07;25.27;;;;;;;-1.24;82.28;98420.90;1764415;80;21158;-38
2021/01/31 00:33:05;;;;;;;42.10;27.67;;;;;;;-1.31;82.36;98408.56;1766736;80;21158;-37
2021/01/31 00:35:36;;;;;;;40.93;27.17;;;;;;;-1.37;81.69;98412.27;1703283;82;21605;-35
2021/01/31 00:38:08;;;;;;;45.90;30.40;;;;;;;-1.45;81.90;98409.13;1703758;83;21182;-36
2021/01/31 00:40:35;;;;;;;44.03;29.70;;;;;;;-1.54;81.61;98402.55;1730755;81;21633;-38
2021/01/31 00:43:03;;;;;;;42.23;27.10;;;;;;;-1.59;81.63;98397.97;1762735;80;21138;-38
2021/01/31 00:45:31;;;;;;;45.27;29.67;;;;;;;-1.66;81.68;98411.33;1755730;79;21134;-37
2021/01/31 00:47:59;;;;;;;43.53;29.63;;;;;;;-1.76;81.96;98423.95;1766848;80;21125;-39
2021/01/31 00:50:30;;;;;;;40.10;25.77;;;;;;;-1.81;82.33;98432.44;1762848;80;21136;-36
2021/01/31 00:53:02;;;;;;;39.40;25.27;;;;;;;-1.82;82.38;98438.55;1762055;80;21123;-38
2021/01/31 00:55:30;;;;;;;39.67;27.47;;;;;;;-1.78;82.42;98442.30;1757255;79;21187;-37
2021/01/31 00:57:57;;;;;;;45.90;27.10;;;;;;;-1.72;82.20;98439.03;1759395;80;21601;-36
2021/01/31 01:00:29;;;;;;;37.83;24.20;;;;;;;-1.71;81.94;98446.83;1760887;79;21161;-38
2021/01/31 01:02:57;;;;;;;38.07;25.87;;;;;;;-1.71;81.79;98449.88;1761255;80;21149;-38
2021/01/31 01:05:28;;;;;;;37.60;24.37;;;;;;;-1.67;81.68;98454.92;1761421;80;21307;-38
2021/01/31 01:07:56;;;;;;;31.47;20.23;;;;;;;-1.61;81.45;98466.91;1763165;79;21133;-36
2021/01/31 01:10:27;;;;;;;36.50;24.23;;;;;;;-1.58;81.23;98474.63;1762784;80;21169;-35
2021/01/31 01:12:56;;;;;;;37.23;23.90;;;;;;;-1.55;81.17;98479.72;1760887;80;22051;-39
2021/01/31 01:15:26;;;;;;;34.13;21.07;;;;;;;-1.50;81.02;98483.46;1759107;79;21114;-37
2021/01/31 01:17:54;;;;;;;33.93;22.37;;;;;;;-1.49;80.90;98485.15;1763294;80;21137;-38
2021/01/31 01:20:22;;;;;;;30.90;20.77;;;;;;;-1.49;80.93;98487.30;1761678;80;21157;-38
2021/01/31 01:22:49;;;;;;;30.43;21.57;;;;;;;-1.52;80.91;98491.36;1763858;80;22495;-36
2021/01/31 01:25:19;;;;;;;31.37;21.70;;;;;;;-1.59;80.71;98492.08;1760530;80;21146;-40
2021/01/31 01:27:47;;;;;;;29.93;20.77;;;;;;;-1.68;80.81;98495.52;1701730;82;21174;-39
2021/01/31 01:30:19;;;;;;;28.80;19.40;;;;;;;-1.75;80.79;98497.05;1759689;79;21181;-39
2021/01/31 01:32:48;;;;;;;34.83;22.33;;;;;;;-1.82;81.08;98492.13;1758687;80;21133;-37
2021/01/31 01:35:16;;;;;;;31.47;21.83;;;;;;;-1.91;81.22;98497.28;1764548;79;22021;-38
2021/01/31 01:37:44;;;;;;;31.07;20.23;;;;;;;-1.98;82.69;98507.10;1706692;82;21584;-37
2021/01/31 01:40:28;;;;;;;33.07;22.20;;;;;;;-2.01;82.07;98511.61;1762175;80;21140;-37
2021/01/31 01:42:56;;;;;;;28.23;19.70;;;;;;;-2.03;81.78;98522.11;1754507;80;21118;-37
2021/01/31 01:45:23;;;;;;;29.67;20.60;;;;;;;-2.05;81.52;98520.00;1765478;80;21174;-36
2021/01/31 01:47:52;;;;;;;30.87;21.50;;;;;;;-2.02;81.05;98519.88;1705396;82;21137;-39
2021/01/31 01:50:31;;;;;;;32.30;21.60;;;;;;;-1.98;80.39;98532.39;1717639;81;21582;-39
2021/01/31 01:53:00;;;;;;;26.43;17.97;;;;;;;-2.05;79.33;98540.90;1761381;80;21827;-39
2021/01/31 01:55:32;;;;;;;27.67;17.80;;;;;;;-2.10;79.70;98546.75;1698636;82;21506;-39
2021/01/31 01:58:07;;;;;;;26.50;18.77;;;;;;;-2.14;79.43;98554.33;1763998;80;21123;-53
2021/01/31 02:00:34;;;;;;;24.27;17.03;;;;;;;-2.15;79.36;98555.22;1760007;79;21153;-46
2021/01/31 02:03:08;;;;;;;21.90;16.70;;;;;;;-2.15;79.91;98570.89;1758673;80;21150;-39
2021/01/31 02:05:36;;;;;;;24.73;16.17;;;;;;;-2.12;79.82;98575.15;1756193;79;21142;-38
2021/01/31 02:08:04;;;;;;;23.40;17.17;;;;;;;-2.11;79.22;98580.33;1763904;79;21185;-38
2021/01/31 02:10:32;;;;;;;26.53;16.57;;;;;;;-2.06;78.85;98594.07;1758827;79;21159;-38
2021/01/31 02:13:01;;;;;;;21.33;15.37;;;;;;;;;;1766626;80;21847;-36
2021/01/31 02:15:29;;;;;;;21.03;13.83;;;;;;;-2.04;77.96;98604.45;1768713;80;21410;-38
2021/01/31 02:18:02;;;;;;;17.43;13.00;;;;;;;-2.02;77.95;98614.39;1771868;79;21126;-36
2021/01/31 02:21:03;;;;;;;16.53;12.10;;;;;;;-1.99;77.65;98617.77;1769713;79;21158;-40
2021/01/31 02:24:11;;;;;;;17.73;12.58;;;;;;;-1.96;77.61;98628.09;1771908;79;21561;-38
2021/01/31 02:27:11;;;;;;;19.07;12.60;;;;;;;-1.90;77.27;98637.92;1767283;80;21601;-36
2021/01/31 02:30:03;;;;;;;14.43;10.43;;;;;;;-1.89;77.00;98652.25;1698216;82;21589;-37
2021/01/31 02:32:34;;;;;;;;;;;;;;;-1.87;76.93;98654.79;1697232;82;21569;-35
2021/01/31 02:35:14;;;;;;;15.43;11.15;;;;;;;-1.87;76.77;98666.09;1698509;82;20162;-40
2021/01/31 02:38:19;;;;;;;15.15;8.95;;;;;;;-1.85;76.77;98679.11;1674385;82;21167;-39
2021/01/31 02:41:00;;;;;;;17.10;10.17;;;;;;;-1.82;76.65;98680.30;1695122;82;21134;-37
2021/01/31 02:43:45;;;;;;;13.10;9.23;;;;;;;-1.84;76.01;98684.30;1703901;82;21157;-38
2021/01/31 02:46:55;;;;;;;12.30;8.43;;;;;;;-1.92;76.17;98692.84;1707493;82;21768;-36
2021/01/31 02:49:32;;;;;;;11.23;8.13;;;;;;;-1.97;76.23;98694.34;1761955;79;23848;-39
2021/01/31 02:52:29;;;;;;;11.20;8.33;;;;;;;-1.98;76.41;98705.68;1739412;80;21522;-39
2021/01/31 02:55:14;;;;;;;11.20;7.63;;;;;;;-1.94;76.33;98714.28;1797123;78;22688;-37
2021/01/31 02:58:13;;;;;;;9.68;7.08;;;;;;;-1.99;76.35;98725.31;1773923;79;21107;-39
2021/01/31 03:00:58;;;;;;;10.03;7.37;;;;;;;-1.93;76.40;98729.50;1776132;78;21137;-39
2021/01/31 03:03:34;;;;;;;10.27;7.50;;;;;;;-1.94;77.34;98745.64;1759780;78;21172;-39
2021/01/31 03:06:04;;;;;;;10.57;7.67;;;;;;;-1.89;76.95;98742.83;1748670;80;21448;-38
2021/01/31 03:08:38;;;;;;;10.27;6.63;;;;;;;-1.90;76.49;98752.91;1746145;80;21186;-38
2021/01/31 03:11:13;;;;;;;9.33;6.40;;;;;;;-1.96;77.00;98761.36;1738966;80;21149;-40
2021/01/31 03:13:55;;;;;;;9.00;6.77;;;;;;;-1.97;77.73;98762.70;1744930;81;21145;-39
2021/01/31 03:16:38;;;;;;;9.67;6.97;;;;;;;-1.94;77.87;98768.27;1746474;80;21138;-38
2021/01/31 03:19:17;;;;;;;9.10;6.70;;;;;;;-1.88;77.45;98777.23;1750167;80;21557;-40
2021/01/31 03:21:47;;;;;;;10.27;7.37;;;;;;;-1.84;77.17;98790.14;1711744;81;21189;-38
2021/01/31 03:24:37;;;;;;;9.00;6.47;;;;;;;-1.81;76.93;98799.63;1719428;81;21665;-39
2021/01/31 03:27:15;;;;;;;10.90;6.37;;;;;;;-1.77;76.64;98803.83;1712306;81;21625;-39
2021/01/31 03:30:13;;;;;;;8.43;6.20;;;;;;;-1.73;76.40;98813.28;1793246;78;22909;-37
2021/01/31 03:32:56;;;;;;;8.90;6.47;;;;;;;-1.78;76.24;98812.59;1778498;79;21192;-36
2021/01/31 03:35:38;;;;;;;7.00;4.97;;;;;;;-1.80;76.19;98810.02;1776321;78;21699;-41
2021/01/31 03:38:24;;;;;;;6.83;4.73;;;;;;;-1.82;76.12;98818.36;1785131;79;21174;-40
2021/01/31 03:40:55;;;;;;;8.07;5.90;;;;;;;-1.86;76.58;98822.46;1771191;79;21181;-37
2021/01/31 03:43:22;;;;;;;7.62;5.30;;;;;;;-1.89;76.35;98835.61;1742565;80;21152;-39
2021/01/31 03:46:31;;;;;;;8.40;5.90;;;;;;;-1.94;76.32;98845.36;1758583;80;21159;-36
2021/01/31 03:49:04;;;;;;;7.53;5.57;;;;;;;-2.01;77.39;98842.97;1739067;81;21197;-39
2021/01/31 03:51:31;;;;;;;9.00;6.07;;;;;;;-2.06;77.83;98850.56;1702315;81;21324;-39
2021/01/31 03:53:59;;;;;;;7.83;5.53;;;;;;;-2.06;77.84;98850.56;1744840;81;21157;-39
2021/01/31 03:56:31;;;;;;;8.77;5.10;;;;;;;-2.09;77.62;98864.58;1745180;81;21121;-37
2021/01/31 03:58:59;;;;;;;9.60;5.53;;;;;;;-2.11;77.48;98869.00;1735941;81;21661;-37
2021/01/31 04:01:27;;;;;;;6.43;4.97;;;;;;;-2.11;77.46;98876.83;1735092;81;21667;-38
2021/01/31 04:04:03;;;;;;;8.37;5.60;;;;;;;-2.07;77.33;98886.26;1675123;83;21169;-39
2021/01/31 04:06:32;;;;;;;6.83;4.93;;;;;;;-2.05;77.73;98887.06;1631285;86;21462;-39
2021/01/31 04:09:00;;;;;;;7.60;5.07;;;;;;;-2.05;77.70;98900.13;1635989;86;21342;-39
2021/01/31 04:11:37;;;;;;;7.33;5.30;;;;;;;-1.96;77.77;98908.99;1798676;78;23501;-39
2021/01/31 04:14:22;;;;;;;7.42;5.35;;;;;;;-1.96;77.36;98915.53;1773921;80;21541;-39
2021/01/31 04:16:50;;;;;;;7.50;5.90;;;;;;;-1.95;77.16;98913.77;1777850;80;21571;-36
2021/01/31 04:19:19;;;;;;;6.77;5.17;;;;;;;-1.97;77.06;98920.79;1768758;79;21160;-39
2021/01/31 04:21:46;;;;;;;9.90;5.67;;;;;;;-2.02;76.81;98919.63;1739496;81;21146;-41
2021/01/31 04:24:14;;;;;;;6.60;4.17;;;;;;;-2.07;76.71;98924.14;1720953;81;21159;-38
2021/01/31 04:26:42;;;;;;;8.27;5.63;;;;;;;-2.10;76.80;98933.84;1716391;81;21617;-40
2021/01/31 04:29:10;;;;;;;6.87;4.90;;;;;;;-2.13;76.72;98940.02;1718478;82;21682;-40
2021/01/31 04:31:38;;;;;;;6.17;4.20;;;;;;;-2.13;76.69;98946.55;1717276;82;21141;-36
2021/01/31 04:34:06;;;;;;;6.33;5.00;;;;;;;-2.13;76.67;98947.02;1719555;81;21171;-38
2021/01/31 04:36:33;;;;;;;7.07;4.50;;;;;;;-2.11;76.62;98952.59;1740932;81;21138;-37
2021/01/31 04:39:01;;;;;;;5.50;4.10;;;;;;;-2.09;77.25;98966.47;1722752;81;21137;-39
2021/01/31 04:41:34;;;;;;;5.70;4.07;;;;;;;-2.06;77.65;98974.20;1741194;81;21153;-39
2021/01/31 04:44:02;;;;;;;5.73;3.83;;;;;;;-2.02;78.06;98984.95;1745192;81;21141;-39
2021/01/31 04:46:52;;;;;;;5.50;4.27;;;;;;;-1.95;77.54;98990.84;1692728;81;21185;-40
2021/01/31 04:49:52;;;;;;;7.23;5.20;;;;;;;-1.86;77.08;99002.34;1733847;81;21665;-42
2021/01/31 04:52:30;;;;;;;6.10;4.40;;;;;;;-1.79;76.83;99002.98;1706232;82;21184;-38
2021/01/31 04:55:21;;;;;;;6.50;4.57;;;;;;;-1.69;76.50;99010.08;1727752;82;21545;-42
2021/01/31 04:58:14;;;;;;;5.67;4.33;;;;;;;-1.63;76.16;99017.29;1728790;82;21422;-39
2021/01/31 05:01:08;;;;;;;7.57;5.17;;;;;;;-1.60;75.70;99032.87;1729555;82;21891;-41
2021/01/31 05:04:01;;;;;;;6.73;5.17;;;;;;;-1.57;75.63;99041.92;1710872;82;21782;-38
2021/01/31 05:06:37;;;;;;;6.60;5.57;;;;;;;-1.51;75.47;99052.66;1704217;82;21643;-38
2021/01/31 05:09:04;;;;;;;7.13;5.40;;;;;;;-1.44;75.28;99054.61;1702957;82;21141;-39
2021/01/31 05:12:21;;;;;;;8.10;5.97;;;;;;;-1.41;75.00;99059.73;1703208;82;21184;-38
2021/01/31 05:14:57;;;;;;;6.33;4.83;;;;;;;-1.37;74.88;99070.51;1690127;82;21149;-39
2021/01/31 05:17:24;;;;;;;6.83;4.63;;;;;;;-1.31;74.73;99083.41;1693877;83;21166;-39
2021/01/31 05:19:53;;;;;;;8.33;5.63;;;;;;;-1.29;74.62;99089.42;1698371;82;21153;-41
2021/01/31 05:22:26;;;;;;;6.60;4.67;;;;;;;-1.26;74.49;99089.78;1696143;82;21193;-39
2021/01/31 05:24:54;;;;;;;7.93;5.90;;;;;;;-1.24;74.37;99094.05;1679072;83;21150;-40
2021/01/31 05:27:26;;;;;;;6.70;5.20;;;;;;;-1.24;74.33;99101.91;1700514;82;22098;-39
2021/01/31 05:29:54;;;;;;;7.20;5.37;;;;;;;-1.23;74.19;99103.63;1695522;82;21122;-39
2021/01/31 05:32:21;;;;;;;7.00;5.27;;;;;;;-1.23;74.00;99102.78;1700095;82;21170;-40
2021/01/31 05:34:53;;;;;;;6.63;4.67;;;;;;;-1.24;73.97;99105.83;1667943;84;21165;-39
2021/01/31 05:37:26;;;;;;;8.50;5.53;;;;;;;-1.21;73.96;99107.06;1696986;82;21193;-43
2021/01/31 05:39:59;;;;;;;7.90;6.00;;;;;;;-1.14;76.26;99114.23;1696423;82;22101;-42
2021/01/31 05:42:30;;;;;;;8.13;5.33;;;;;;;-1.00;76.85;99109.88;1678912;84;21168;-40
2021/01/31 05:45:11;;;;;;;7.70;5.75;;;;;;;-0.81;77.49;99116.66;1669433;83;21194;-41
2021/01/31 05:47:41;;;;;;;7.63;5.73;;;;;;;-0.66;76.25;99121.37;1688280;83;21884;-41
2021/01/31 05:50:38;;;;;;;7.97;5.70;;;;;;;-0.52;75.65;99130.92;1694827;83;21834;-42
2021/01/31 05:53:33;;;;;;;8.70;5.90;;;;;;;-0.46;75.00;99134.63;1695412;82;21475;-41
2021/01/31 05:56:26;;;;;;;7.87;6.00;;;;;;;-0.46;74.68;99139.87;1699198;82;21648;-40
2021/01/31 05:59:08;;;;;;;7.40;5.47;;;;;;;-0.43;74.09;99146.77;1693251;82;21185;-41
2021/01/31 06:02:00;;;;;;;8.55;5.75;;;;;;;-0.44;73.62;99145.91;1700963;82;21161;-41
2021/01/31 06:04:28;;;;;;;7.58;5.87;;;;;;;-0.42;73.30;99147.19;1693504;83;21598;-38
2021/01/31 06:07:10;;;;;;;7.83;5.97;;;;;;;-0.42;72.57;99152.42;1698075;82;21306;-39
2021/01/31 06:09:49;;;;;;;9.43;6.07;;;;;;;-0.48;72.01;99160.05;1694242;83;21149;-42
2021/01/31 06:12:24;;;;;;;9.73;6.53;;;;;;;-0.58;71.39;99162.58;1694701;83;21573;-39
2021/01/31 06:15:06;;;;;;;11.03;7.60;;;;;;;-0.70;71.51;99165.60;1700188;83;21162;-41
2021/01/31 06:17:34;;;;;;;10.03;7.43;;;;;;;-0.79;71.31;99173.75;1696635;83;21195;-38
2021/01/31 06:20:15;;;;;;;9.80;6.73;;;;;;;-0.90;71.58;99172.80;1697268;83;21167;-40
2021/01/31 06:22:46;;;;;;;9.93;7.83;;;;;;;-0.99;71.67;99177.02;1698675;82;21187;-40
2021/01/31 06:25:29;;;;;;;;;;;;;;;-1.08;72.48;99176.86;1698482;83;21625;-40
2021/01/31 06:28:17;;;;;;;10.27;7.40;;;;;;;-1.18;72.52;99184.14;1698664;83;20604;-40
2021/01/31 06:31:10;;;;;;;8.77;6.40;;;;;;;-1.25;72.59;99183.07;1704492;83;21165;-39
2021/01/31 06:33:39;;;;;;;9.83;7.17;;;;;;;-1.31;73.17;99191.97;1697610;82;21188;-39
2021/01/31 06:36:30;;;;;;;8.70;7.00;;;;;;;-1.32;73.32;99190.23;1695895;82;21195;-40
2021/01/31 06:39:32;;;;;;;8.75;6.42;;;;;;;-1.32;73.32;99197.62;1698537;82;21466;-39
2021/01/31 06:42:20;;;;;;;10.80;7.67;;;;;;;-1.28;73.23;99198.41;1663887;84;21635;-39
2021/01/31 06:44:59;;;;;;;10.50;7.40;;;;;;;-1.22;73.32;99214.37;1668468;84;21801;-37
2021/01/31 06:47:51;;;;;;;11.00;7.23;;;;;;;-1.22;73.25;99215.67;1689095;83;21172;-38
2021/01/31 06:51:15;;;;;;;12.10;8.53;;;;;;;-1.21;73.15;99210.41;1675326;84;21178;-49
2021/01/31 06:54:09;;;;;;;11.90;7.67;;;;;;;-1.24;75.84;99220.94;1677258;83;21188;-41
2021/01/31 06:57:20;;;;;;;10.27;7.50;;;;;;;-1.23;77.34;99216.59;1676065;83;21167;-41
2021/01/31 07:00:31;;;;;;;10.27;6.50;;;;;;;-1.19;77.72;99223.42;1688191;83;21561;-40
2021/01/31 07:03:16;;;;;;;10.25;7.10;;;;;;;-1.16;78.16;99225.94;1685085;83;21158;-40
2021/01/31 07:06:29;;;;;;;11.97;8.00;;;;;;;-1.15;77.58;99239.45;1700300;82;21157;-40
2021/01/31 07:09:35;;;;;;;12.88;9.30;;;;;;;-1.12;76.38;99248.05;1675104;84;21153;-40
2021/01/31 07:12:06;;;;;;;11.27;7.23;;;;;;;-1.05;75.43;99254.42;1656772;84;21209;-41
2021/01/31 07:15:00;;;;;;;11.20;8.20;;;;;;;-1.01;74.73;99271.27;1653279;83;22074;-40
2021/01/31 07:17:41;;;;;;;12.40;7.87;;;;;;;-0.99;74.55;99271.23;1646352;85;21186;-39
2021/01/31 07:20:21;;;;;;;12.07;8.87;;;;;;;-0.94;74.23;99282.42;1654639;85;21142;-42
2021/01/31 07:23:11;;;;;;;11.87;7.87;;;;;;;-0.92;73.79;99291.09;1656735;85;21600;-41
2021/01/31 07:25:42;;;;;;;13.73;9.37;;;;;;;-0.92;73.69;99296.33;1674601;84;21166;-40
2021/01/31 07:28:29;;;;;;;13.58;8.63;;;;;;;-0.94;74.60;99297.67;1679245;83;21190;-41
2021/01/31 07:31:12;;;;;;;15.13;9.53;;;;;;;-0.93;74.19;99298.55;1678102;83;21488;-42
2021/01/31 07:33:53;;;;;;;13.47;8.97;;;;;;;-0.93;73.84;99312.48;1653249;85;21155;-46
2021/01/31 07:36:33;;;;;;;14.83;9.45;;;;;;;-0.94;73.88;99309.91;1650907;85;21924;-40
2021/01/31 07:39:08;;;;;;;15.18;9.55;;;;;;;-0.89;73.80;99311.94;1652625;85;21181;-38
2021/01/31 07:41:39;;;;;;;15.20;9.93;;;;;;;-0.85;73.65;99318.80;1677879;85;21118;-41
2021/01/31 07:44:10;;;;;;;13.90;9.20;;;;;;;-0.82;73.57;99317.39;1663435;84;21142;-41
2021/01/31 07:46:38;;;;;;;15.85;8.58;;;;;;;-0.81;73.41;99324.33;1666023;84;21136;-38
2021/01/31 07:49:06;;;;;;;15.20;9.43;;;;;;;-0.76;73.40;99328.97;1661777;84;21178;-40
2021/01/31 07:51:40;;;;;;;13.47;9.17;;;;;;;-0.75;73.37;99336.41;1661395;84;21156;-41
2021/01/31 07:54:25;;;;;;;15.90;9.63;;;;;;;-0.74;73.27;99336.34;1658308;84;21174;-42
2021/01/31 07:57:16;;;;;;;12.83;9.13;;;;;;;-0.72;73.31;99337.16;1658358;84;21150;-38
2021/01/31 07:59:45;;;;;;;13.53;9.43;;;;;;;-0.70;73.20;99336.66;1675764;83;21174;-42
2021/01/31 08:02:17;;;;;;;16.07;10.03;;;;;;;-0.69;73.21;99342.29;1647602;85;21171;-40
2021/01/31 08:04:46;;;;;;;12.83;8.67;;;;;;;-0.68;73.09;99346.64;1614385;85;21194;-41
2021/01/31 08:07:54;;;;;;;13.85;9.05;;;;;;;-0.71;72.96;99353.25;1647437;85;21481;-42
2021/01/31 08:10:44;;;;;;;12.27;8.10;;;;;;;-0.70;72.79;99357.61;1672627;83;21134;-38
2021/01/31 08:13:39;;;;;;;12.23;9.10;;;;;;;-0.72;72.80;99358.56;1661674;85;21134;-42
2021/01/31 08:16:47;;;;;;;16.00;9.57;;;;;;;-0.69;72.90;99365.86;1661106;84;21173;-39
2021/01/31 08:19:24;;;;;;;12.50;8.40;;;;;;;-0.61;72.80;99371.32;1659128;84;21122;-41
2021/01/31 08:22:18;;;;;;;13.72;9.18;;;;;;;-0.57;72.28;99386.91;1658415;85;21154;-42
2021/01/31 08:25:01;;;;;;;13.70;9.57;;;;;;;-0.56;71.86;99396.46;1656147;84;21158;-40
2021/01/31 08:27:43;;;;;;;11.87;8.00;;;;;;;-0.63;72.97;99404.13;1660082;84;21158;-41
2021/01/31 08:30:32;;;;;;;9.97;7.37;;;;;;;-0.70;73.40;99405.20;1676853;83;21181;-43
2021/01/31 08:33:27;;;;;;;11.47;7.03;;;;;;;-0.76;76.36;99411.45;1677832;83;21178;-42
2021/01/31 08:36:35;;;;;;;11.47;7.67;;;;;;;-0.75;75.33;99415.80;1652267;85;21199;-40
2021/01/31 08:39:55;;;;;;;11.27;7.70;;;;;;;-0.60;74.68;99424.13;1786385;78;23065;-43
2021/01/31 08:42:23;;;;;;;14.20;8.27;;;;;;;-0.58;72.93;99428.42;1773351;78;21605;-39
2021/01/31 08:44:56;;;;;;;12.10;7.73;;;;;;;-0.58;75.44;99435.39;1735845;81;21135;-40
2021/01/31 08:47:24;;;;;;;11.37;8.07;;;;;;;-0.55;73.04;99441.88;1703448;82;21201;-41
2021/01/31 08:49:58;;;;;;;9.43;6.87;;;;;;;-0.50;72.99;99444.75;1732862;81;21138;-41
2021/01/31 08:52:27;;;;;;;12.37;7.33;;;;;;;-0.42;72.32;99448.91;1746978;81;21122;-42
2021/01/31 08:55:03;;;;;;;8.30;5.90;;;;;;;-0.35;71.14;99447.38;1693595;82;21197;-41
2021/01/31 08:57:30;;;;;;;9.17;5.87;;;;;;;-0.31;70.78;99458.61;1721823;81;21684;-42
2021/01/31 09:00:07;;;;;;;8.03;6.50;;;;;;;-0.26;70.43;99459.33;1733610;81;21767;-42
2021/01/31 09:02:35;;;;;;;10.67;6.23;;;;;;;-0.22;69.89;99469.67;1716386;81;21170;-40
2021/01/31 09:05:17;;;;;;;14.53;6.37;;;;;;;-0.22;68.55;99464.89;1709168;81;21164;-39
2021/01/31 09:07:51;;;;;;;10.25;6.25;;;;;;;-0.24;68.37;99471.47;1715531;81;21772;-42
2021/01/31 09:10:35;;;;;;;8.70;5.80;;;;;;;-0.34;67.30;99475.73;1704696;82;21635;-41
2021/01/31 09:13:25;;;;;;;9.17;6.10;;;;;;;-0.39;68.22;99467.16;1684568;83;21141;-41
2021/01/31 09:15:53;;;;;;;8.20;5.70;;;;;;;-0.31;68.11;99476.48;1677842;83;21699;-39
2021/01/31 09:18:23;;;;;;;8.63;6.20;;;;;;;-0.21;67.54;99481.00;1660622;84;21217;-39
2021/01/31 09:20:51;;;;;;;8.67;5.23;;;;;;;-0.20;67.28;99485.79;1719177;82;21187;-38
2021/01/31 09:23:35;;;;;;;9.70;6.40;;;;;;;-0.26;66.87;99486.38;1705825;81;21641;-40
2021/01/31 09:26:03;;;;;;;9.80;5.10;;;;;;;-0.29;67.09;99482.55;1689739;83;21609;-40
2021/01/31 09:28:30;;;;;;;9.53;5.27;;;;;;;-0.25;66.88;99489.42;1677913;84;21154;-41
2021/01/31 09:31:00;;;;;;;6.80;4.50;;;;;;;-0.20;65.93;99500.20;1685789;83;21169;-39
2021/01/31 09:33:38;;;;;;;8.40;5.47;;;;;;;-0.19;65.55;99491.00;1687880;83;21911;-39
2021/01/31 09:36:19;;;;;;;6.83;4.93;;;;;;;-0.19;66.60;99492.30;1680127;83;21338;-38
2021/01/31 09:38:47;;;;;;;;;;;;;;;-0.19;66.49;99489.69;1679042;84;21171;-39
2021/01/31 09:41:17;;;;;;;7.67;4.40;;;;;;;-0.22;66.38;99494.56;1681792;83;20338;-39
2021/01/31 09:43:46;;;;;;;9.23;5.43;;;;;;;-0.22;66.85;99493.72;1667099;84;21237;-39
2021/01/31 09:46:15;;;;;;;7.63;4.63;;;;;;;-0.19;66.32;99488.83;1684060;83;21172;-39
2021/01/31 09:48:43;;;;;;;10.00;6.40;;;;;;;-0.18;65.92;99495.32;1682634;84;21218;-39
2021/01/31 09:51:25;;;;;;;7.10;4.93;;;;;;;-0.14;65.55;99499.58;1684183;83;21196;-40
2021/01/31 09:53:53;;;;;;;8.17;5.10;;;;;;;-0.10;65.51;99503.84;1679184;84;21166;-40
2021/01/31 09:56:41;;;;;;;6.80;4.73;;;;;;;-0.02;65.27;99508.84;1687482;83;21217;-42
2021/01/31 09:59:36;;;;;;;6.50;4.03;;;;;;;0.06;64.89;99518.64;1686480;83;21185;-41
2021/01/31 10:02:21;;;;;;;8.53;5.83;;;;;;;0.16;64.90;99522.69;1695093;82;21144;-40
2021/01/31 10:05:01;;;;;;;9.10;5.27;;;;;;;0.23;66.27;99526.41;1690027;82;21184;-39
2021/01/31 10:07:37;;;;;;;7.53;5.13;;;;;;;0.25;65.50;99530.70;1690084;82;21160;-37
2021/01/31 10:10:27;;;;;;;6.03;4.12;;;;;;;0.28;65.70;99535.00;1695833;82;21569;-38
2021/01/31 10:13:28;;;;;;;6.67;4.50;;;;;;;0.34;65.48;99526.95;1714792;82;21291;-41
2021/01/31 10:16:00;;;;;;;8.25;4.60;;;;;;;0.37;64.45;99536.88;1721571;82;21614;-40
2021/01/31 10:18:34;;;;;;;6.05;3.83;;;;;;;0.38;62.23;99540.39;1699832;82;21164;-39
2021/01/31 10:21:18;;;;;;;7.13;4.00;;;;;;;0.34;62.83;99547.48;1693630;82;21176;-41
2021/01/31 10:23:48;;;;;;;7.47;5.03;;;;;;;0.37;62.83;99552.63;1687674;83;21182;-39
2021/01/31 10:26:21;;;;;;;6.80;4.47;;;;;;;0.40;62.00;99556.48;1698142;83;21171;-42
2021/01/31 10:28:59;;;;;;;6.37;3.80;;;;;;;0.35;61.46;99549.64;1725074;81;21177;-40
2021/01/31 10:31:34;;;;;;;4.97;3.77;;;;;;;0.35;62.00;99565.38;1720209;81;21653;-40
2021/01/31 10:34:05;;;;;;;5.73;3.77;;;;;;;0.36;61.62;99567.12;1719364;82;21663;-39
2021/01/31 10:36:44;;;;;;;5.47;3.95;;;;;;;0.39;61.18;99568.33;1723226;82;21155;-40
2021/01/31 10:39:23;;;;;;;7.17;3.80;;;;;;;0.41;60.96;99565.20;1684435;83;21201;-40
2021/01/31 10:41:52;;;;;;;7.13;3.83;;;;;;;0.40;60.88;99572.23;1708011;83;21157;-41
2021/01/31 10:44:25;;;;;;;5.55;3.05;;;;;;;0.37;60.46;99570.98;1707611;82;21157;-39
2021/01/31 10:46:54;;;;;;;7.37;3.63;;;;;;;0.38;60.44;99579.73;1696030;83;21656;-39
2021/01/31 10:49:22;;;;;;;5.47;3.57;;;;;;;0.35;59.91;99578.06;1703315;82;21526;-39
2021/01/31 10:51:50;;;;;;;6.10;3.60;;;;;;;0.31;59.90;99583.45;1695876;83;21203;-40
2021/01/31 10:54:19;;;;;;;6.50;3.63;;;;;;;0.30;60.27;99586.50;1705608;83;21144;-40
2021/01/31 10:56:46;;;;;;;6.92;4.20;;;;;;;0.37;60.45;99587.19;1704506;82;21204;-40
2021/01/31 10:59:14;;;;;;;8.85;5.25;;;;;;;0.42;60.67;99586.12;1685800;83;21194;-42
2021/01/31 11:01:49;;;;;;;5.30;3.72;;;;;;;0.50;60.52;99587.66;1673168;84;21178;-41
2021/01/31 11:04:17;;;;;;;5.33;3.57;;;;;;;0.58;60.04;99592.20;1673563;83;21222;-40
2021/01/31 11:06:45;;;;;;;5.95;3.65;;;;;;;0.62;59.87;99580.25;1717725;81;21160;-39
2021/01/31 11:09:15;;;;;;;7.22;4.22;;;;;;;0.68;59.53;99590.16;1691780;83;21182;-43
2021/01/31 11:11:43;;;;;;;5.40;3.40;;;;;;;0.74;59.25;99592.59;1692587;83;21157;-43
2021/01/31 11:14:11;;;;;;;4.67;3.00;;;;;;;0.77;59.15;99590.72;1682503;84;21153;-38
2021/01/31 11:16:39;;;;;;;6.77;3.53;;;;;;;0.82;59.18;99600.61;1680895;83;22851;-41
2021/01/31 11:19:07;;;;;;;5.42;3.00;;;;;;;0.84;58.50;99604.05;1695852;83;21187;-42
2021/01/31 11:21:34;;;;;;;5.65;3.40;;;;;;;0.81;58.66;99608.56;1694183;83;21242;-42
2021/01/31 11:24:03;;;;;;;4.92;3.15;;;;;;;0.84;58.80;99611.08;1689537;83;21175;-42
2021/01/31 11:26:30;;;;;;;5.78;3.72;;;;;;;0.88;58.41;99619.23;1693331;83;21668;-41
2021/01/31 11:28:58;;;;;;;6.87;3.92;;;;;;;0.89;58.23;99616.19;1720370;81;21135;-41
2021/01/31 11:31:26;;;;;;;8.30;3.98;;;;;;;0.86;57.62;99622.39;1687754;83;21220;-39
2021/01/31 11:33:55;;;;;;;6.05;3.30;;;;;;;0.75;55.54;99619.23;1713654;81;21692;-44
2021/01/31 11:36:23;;;;;;;6.08;3.58;;;;;;;0.59;56.67;99628.91;1719546;81;21161;-44
2021/01/31 11:38:51;;;;;;;5.33;3.37;;;;;;;0.50;57.31;99622.63;1702417;83;21153;-41
2021/01/31 11:41:20;;;;;;;5.50;3.60;;;;;;;0.46;57.16;99624.10;1683846;83;21197;-44
2021/01/31 11:43:47;;;;;;;5.47;3.75;;;;;;;0.41;57.70;99623.77;1697604;83;21168;-44
2021/01/31 11:46:15;;;;;;;6.80;3.95;;;;;;;0.40;57.86;99623.81;1724494;81;21173;-43
2021/01/31 11:48:43;;;;;;;6.08;3.10;;;;;;;0.42;57.91;99625.94;1717443;82;21188;-41
2021/01/31 11:51:10;;;;;;;6.85;4.12;;;;;;;0.43;57.89;99631.61;1700296;82;21687;-41
2021/01/31 11:53:39;;;;;;;7.45;3.60;;;;;;;0.42;57.66;99621.55;1700902;82;21495;-38
2021/01/31 11:56:06;;;;;;;5.37;3.37;;;;;;;0.40;57.73;99622.50;1685591;83;21314;-39
2021/01/31 11:58:34;;;;;;;5.85;3.75;;;;;;;0.39;57.66;99626.89;1705047;82;21233;-39
2021/01/31 12:01:02;;;;;;;5.33;2.90;;;;;;;0.39;57.66;99629.52;1694337;82;21201;-39
2021/01/31 12:03:29;;;;;;;6.90;4.20;;;;;;;0.42;57.61;99628.56;1695413;82;21185;-41
2021/01/31 12:05:57;;;;;;;4.33;3.00;;;;;;;0.41;56.86;99628.17;1695012;82;21229;-40
2021/01/31 12:08:25;;;;;;;6.40;2.70;;;;;;;0.39;56.94;99624.27;1690470;82;21178;-49
2021/01/31 12:10:54;;;;;;;5.23;2.97;;;;;;;0.35;56.51;99621.35;1700927;82;21157;-44
2021/01/31 12:13:24;;;;;;;5.85;2.92;;;;;;;0.34;57.91;99627.94;1686133;82;21169;-43
2021/01/31 12:15:52;;;;;;;4.53;3.03;;;;;;;0.35;57.37;99629.65;1690684;82;21189;-42